Time;durP1;ratioP1;P1;durP2;ratioP2;P2;SDS_P1;SDS_P2;PMS_P1;PMS_P2;Temp;Humidity;BMP_temperature;BMP_pressure;BME280_temperature;BME280_humidity;BME280_pressure;Samples;Min_cycle;Max_cycle;Signal;HPM_P1;HPM_P2
2021/04/09 00:00:31;;;;;;;15.23;12.33;;;;;;;;;;2054174;28;20722;-60
2021/04/09 00:01:32;;;;;;;15.00;12.90;;;;;;;;;;2053705;28;20195;-55
2021/04/09 00:02:33;;;;;;;13.43;12.03;;;;;;;;;;2059478;28;20177;-58
2021/04/09 00:03:33;;;;;;;14.30;12.70;;;;;;;;;;2054973;28;20187;-59
2021/04/09 00:04:34;;;;;;;15.00;12.30;;;;;;;;;;2058376;28;20184;-55
2021/04/09 00:05:34;;;;;;;13.50;12.17;;;;;;;;;;2046069;29;20231;-56
2021/04/09 00:06:34;;;;;;;14.90;13.33;;;;;;;;;;2048265;29;20179;-60
2021/04/09 00:07:35;;;;;;;13.43;12.20;;;;;;;;;;2059894;28;20202;-59
2021/04/09 00:08:35;;;;;;;18.83;12.70;;;;;;;;;;2054785;28;20176;-59
2021/04/09 00:09:36;;;;;;;14.47;12.97;;;;;;;;;;2057855;28;20734;-62
2021/04/09 00:10:36;;;;;;;12.47;11.33;;;;;;;;;;2059578;28;20201;-60
2021/04/09 00:11:37;;;;;;;14.50;12.40;;;;;;;;;;2063169;28;20175;-58
2021/04/09 00:12:38;;;;;;;14.67;13.17;;;;;;;;;;2053782;29;20698;-57
2021/04/09 00:13:38;;;;;;;14.10;12.23;;;;;;;;;;2049825;29;20162;-59
2021/04/09 00:14:38;;;;;;;14.60;12.83;;;;;;;;;;2052323;29;20213;-59
2021/04/09 00:15:39;;;;;;;13.97;12.43;;;;;;;;;;2053745;28;20664;-56
2021/04/09 00:16:39;;;;;;;15.07;12.80;;;;;;;;;;2060073;28;20707;-60
2021/04/09 00:17:41;;;;;;;13.87;12.47;;;;;;;;;;2056495;28;20667;-60
2021/04/09 00:18:41;;;;;;;14.43;12.10;;;;;;;;;;2055095;28;20159;-58
2021/04/09 00:19:42;;;;;;;16.60;12.80;;;;;;;;;;2053751;28;20193;-58
2021/04/09 00:20:42;;;;;;;14.30;12.27;;;;;;;;;;2053668;28;20254;-61
2021/04/09 00:21:43;;;;;;;13.13;11.73;;;;;;;;;;2053846;29;20675;-61
2021/04/09 00:22:44;;;;;;;14.20;12.60;;;;;;;;;;2053924;28;20183;-59
2021/04/09 00:23:44;;;;;;;14.83;12.63;;;;;;;;;;2053611;28;20202;-60
2021/04/09 00:24:44;;;;;;;13.53;12.10;;;;;;;;;;2053845;28;20178;-57
2021/04/09 00:25:45;;;;;;;15.83;12.37;;;;;;;;;;2057177;28;20211;-59
2021/04/09 00:26:45;;;;;;;14.13;12.63;;;;;;;;;;2054165;28;20191;-59
2021/04/09 00:27:45;;;;;;;13.47;11.87;;;;;;;;;;2052440;29;20186;-58
2021/04/09 00:28:46;;;;;;;13.97;12.47;;;;;;;;;;2053004;29;20179;-59
2021/04/09 00:29:46;;;;;;;13.87;12.33;;;;;;;;;;2062233;28;20185;-58
2021/04/09 00:30:46;;;;;;;16.10;13.40;;;;;;;;;;2055035;28;20356;-59
2021/04/09 00:31:46;;;;;;;16.67;12.90;;;;;;;;;;2056066;28;20167;-61
2021/04/09 00:32:47;;;;;;;13.63;12.23;;;;;;;;;;2053322;28;20644;-59
2021/04/09 00:33:47;;;;;;;16.03;12.73;;;;;;;;;;2052777;28;20175;-60
2021/04/09 00:34:47;;;;;;;13.87;12.53;;;;;;;;;;2054309;28;20183;-54
2021/04/09 00:35:47;;;;;;;16.07;12.30;;;;;;;;;;2057448;28;20178;-59
2021/04/09 00:36:48;;;;;;;15.80;12.80;;;;;;;;;;2062617;28;20478;-56
2021/04/09 00:37:50;;;;;;;13.73;12.23;;;;;;;;;;2055296;28;20178;-58
2021/04/09 00:38:50;;;;;;;14.90;12.13;;;;;;;;;;2047239;28;20576;-54
2021/04/09 00:39:50;;;;;;;13.20;11.83;;;;;;;;;;2054308;28;20171;-55
2021/04/09 00:40:51;;;;;;;14.17;12.67;;;;;;;;;;2054848;28;20209;-55
2021/04/09 00:41:51;;;;;;;15.37;12.23;;;;;;;;;;2054856;29;20182;-56
2021/04/09 00:42:51;;;;;;;15.97;12.70;;;;;;;;;;2055782;29;20171;-59
2021/04/09 00:43:52;;;;;;;13.87;12.23;;;;;;;;;;2053986;28;20191;-55
2021/04/09 00:44:55;;;;;;;13.73;12.33;;;;;;;;;;2062802;28;20205;-53
2021/04/09 00:45:55;;;;;;;14.07;12.23;;;;;;;;;;2055967;28;20230;-58
2021/04/09 00:46:55;;;;;;;14.90;12.10;;;;;;;;;;2062883;28;20738;-58
2021/04/09 00:47:55;;;;;;;13.77;12.20;;;;;;;;;;2063177;28;20258;-57
2021/04/09 00:48:56;;;;;;;14.37;11.97;;;;;;;;;;2062745;28;20217;-57
2021/04/09 00:49:56;;;;;;;15.77;12.37;;;;;;;;;;2052033;28;20259;-58
2021/04/09 00:50:56;;;;;;;13.87;12.57;;;;;;;;;;2054413;28;20179;-56
2021/04/09 00:51:57;;;;;;;14.20;12.77;;;;;;;;;;2062321;28;20229;-56
2021/04/09 00:52:59;;;;;;;14.87;12.20;;;;;;;;;;2062092;28;20182;-60
2021/04/09 00:54:01;;;;;;;13.47;12.03;;;;;;;;;;2055483;28;20179;-54
2021/04/09 00:55:01;;;;;;;15.80;12.13;;;;;;;;;;2058833;28;20183;-59
2021/04/09 00:56:03;;;;;;;13.20;11.87;;;;;;;;;;2055708;28;20214;-58
2021/04/09 00:57:04;;;;;;;13.90;12.50;;;;;;;;;;2055601;28;20195;-56
2021/04/09 00:58:05;;;;;;;15.27;11.83;;;;;;;;;;2055585;28;20198;-58
2021/04/09 00:59:05;;;;;;;13.97;12.43;;;;;;;;;;2054606;28;20179;-55
2021/04/09 01:00:08;;;;;;;14.50;11.63;;;;;;;;;;2053014;28;20187;-58
2021/04/09 01:01:09;;;;;;;15.47;11.63;;;;;;;;;;2059929;28;20174;-58
2021/04/09 01:02:09;;;;;;;12.93;11.53;;;;;;;;;;2058028;28;20237;-58
2021/04/09 01:03:09;;;;;;;13.10;11.83;;;;;;;;;;2061404;28;20186;-60
2021/04/09 01:04:10;;;;;;;14.93;12.40;;;;;;;;;;2055019;29;20194;-54
2021/04/09 01:05:11;;;;;;;14.00;12.63;;;;;;;;;;2050086;29;20270;-55
2021/04/09 01:06:12;;;;;;;16.33;11.77;;;;;;;;;;2047388;28;20206;-56
2021/04/09 01:07:12;;;;;;;13.93;11.93;;;;;;;;;;2047330;29;20203;-59
2021/04/09 01:08:12;;;;;;;15.20;11.80;;;;;;;;;;2048820;29;20227;-54
2021/04/09 01:09:12;;;;;;;17.27;12.53;;;;;;;;;;2058379;28;20174;-56
2021/04/09 01:10:14;;;;;;;14.43;11.80;;;;;;;;;;2047219;28;20187;-60
2021/04/09 01:11:15;;;;;;;17.23;12.37;;;;;;;;;;2053729;28;20174;-61
2021/04/09 01:12:15;;;;;;;11.87;10.87;;;;;;;;;;2063163;28;20189;-58
2021/04/09 01:13:16;;;;;;;14.27;12.77;;;;;;;;;;2055676;28;20178;-59
2021/04/09 01:14:16;;;;;;;13.27;11.87;;;;;;;;;;2054813;28;20291;-58
2021/04/09 01:15:17;;;;;;;13.87;12.43;;;;;;;;;;2054463;28;20175;-59
2021/04/09 01:16:22;;;;;;;14.13;12.63;;;;;;;;;;2055256;28;20169;-59
2021/04/09 01:17:31;;;;;;;15.10;11.63;;;;;;;;;;2051055;28;20194;-56
2021/04/09 01:18:46;;;;;;;13.23;11.77;;;;;;;;;;2059531;28;20179;-59
2021/04/09 01:20:04;;;;;;;14.70;11.70;;;;;;;;;;2062734;28;20177;-58
2021/04/09 01:21:37;;;;;;;16.80;12.20;;;;;;;;;;2062792;28;20177;-59
2021/04/09 01:22:46;;;;;;;11.73;10.53;;;;;;;;;;2029618;29;20200;-58
2021/04/09 01:23:54;;;;;;;15.97;11.70;;;;;;;;;;2057735;28;20263;-57
2021/04/09 01:25:04;;;;;;;12.93;11.63;;;;;;;;;;2050118;29;20175;-58
2021/04/09 01:26:23;;;;;;;15.40;11.60;;;;;;;;;;2052123;28;20325;-59
2021/04/09 01:27:42;;;;;;;15.83;12.30;;;;;;;;;;2056069;28;20268;-55
2021/04/09 01:29:01;;;;;;;19.20;12.40;;;;;;;;;;2058640;28;20185;-54
2021/04/09 01:30:20;;;;;;;13.83;11.63;;;;;;;;;;2048431;28;20187;-52
2021/04/09 01:31:32;;;;;;;15.13;13.07;;;;;;;;;;2051761;28;20175;-57
2021/04/09 01:32:33;;;;;;;12.90;11.17;;;;;;;;;;2056010;28;20218;-56
2021/04/09 01:33:38;;;;;;;15.87;12.03;;;;;;;;;;2060191;28;20213;-56
2021/04/09 01:34:42;;;;;;;15.00;12.03;;;;;;;;;;2056098;28;20567;-57
2021/04/09 01:35:42;;;;;;;17.27;12.27;;;;;;;;;;2058809;28;20182;-59
2021/04/09 01:36:48;;;;;;;13.60;12.00;;;;;;;;;;2055356;28;20215;-59
2021/04/09 01:37:59;;;;;;;13.03;11.63;;;;;;;;;;2060160;28;20171;-54
2021/04/09 01:39:02;;;;;;;13.53;12.13;;;;;;;;;;2056700;28;20186;-57
2021/04/09 01:40:14;;;;;;;14.03;11.70;;;;;;;;;;2060617;28;20686;-56
2021/04/09 01:41:14;;;;;;;18.17;12.87;;;;;;;;;;2054140;28;20815;-56
2021/04/09 01:42:16;;;;;;;14.83;12.53;;;;;;;;;;2054121;28;20194;-58
2021/04/09 01:43:18;;;;;;;15.23;12.13;;;;;;;;;;2053927;28;20190;-55
2021/04/09 01:44:20;;;;;;;15.70;12.13;;;;;;;;;;2054227;28;20171;-58
2021/04/09 01:45:21;;;;;;;14.37;11.80;;;;;;;;;;2053994;28;20190;-60
2021/04/09 01:46:22;;;;;;;13.37;12.00;;;;;;;;;;2054422;28;20555;-58
2021/04/09 01:47:26;;;;;;;18.77;12.80;;;;;;;;;;2059086;28;20181;-61
2021/04/09 01:48:27;;;;;;;13.83;12.10;;;;;;;;;;2053127;28;20191;-61
2021/04/09 01:49:27;;;;;;;14.50;12.00;;;;;;;;;;2058811;28;20190;-59
2021/04/09 01:50:30;;;;;;;14.63;12.23;;;;;;;;;;2056679;28;20183;-57
2021/04/09 01:51:31;;;;;;;13.93;12.13;;;;;;;;;;2059734;28;20193;-60
2021/04/09 01:52:33;;;;;;;14.30;12.73;;;;;;;;;;2056912;28;20613;-58
2021/04/09 01:53:34;;;;;;;13.53;12.13;;;;;;;;;;2048927;28;20210;-58
2021/04/09 01:54:36;;;;;;;13.20;10.77;;;;;;;;;;2046486;29;20664;-58
2021/04/09 01:55:38;;;;;;;14.43;11.27;;;;;;;;;;2045190;29;20215;-59
2021/04/09 01:56:40;;;;;;;16.80;12.53;;;;;;;;;;2053455;29;20198;-57
2021/04/09 01:57:42;;;;;;;14.57;12.10;;;;;;;;;;2053789;28;20175;-57
2021/04/09 01:58:43;;;;;;;12.13;10.87;;;;;;;;;;2052650;29;20175;-58
2021/04/09 01:59:44;;;;;;;15.53;11.97;;;;;;;;;;2052864;29;20243;-58
2021/04/09 02:00:44;;;;;;;13.17;11.83;;;;;;;;;;2061809;28;20182;-58
2021/04/09 02:01:46;;;;;;;12.23;11.03;;;;;;;;;;2054822;28;20187;-59
2021/04/09 02:02:48;;;;;;;15.03;11.77;;;;;;;;;;2054711;28;20167;-60
2021/04/09 02:03:52;;;;;;;15.67;11.77;;;;;;;;;;2048975;28;20191;-60
2021/04/09 02:04:53;;;;;;;12.57;11.27;;;;;;;;;;2059058;28;20193;-60
2021/04/09 02:05:55;;;;;;;12.63;11.27;;;;;;;;;;2061700;28;20206;-60
2021/04/09 02:06:56;;;;;;;17.27;11.70;;;;;;;;;;2062820;28;20213;-60
2021/04/09 02:07:57;;;;;;;11.80;10.60;;;;;;;;;;2062719;28;20166;-56
2021/04/09 02:08:57;;;;;;;13.23;11.13;;;;;;;;;;2055652;28;20175;-58
2021/04/09 02:09:58;;;;;;;16.43;11.13;;;;;;;;;;2055097;29;20159;-59
2021/04/09 02:10:58;;;;;;;12.60;11.27;;;;;;;;;;2054540;29;20239;-53
2021/04/09 02:11:59;;;;;;;14.47;10.83;;;;;;;;;;2058527;28;20210;-58
2021/04/09 02:13:00;;;;;;;13.23;11.80;;;;;;;;;;2048296;28;20191;-57
2021/04/09 02:14:02;;;;;;;12.40;11.10;;;;;;;;;;2055461;28;20262;-53
2021/04/09 02:15:05;;;;;;;15.47;11.33;;;;;;;;;;2060890;28;20182;-58
2021/04/09 02:16:06;;;;;;;13.13;11.00;;;;;;;;;;2055139;28;20187;-57
2021/04/09 02:17:07;;;;;;;13.60;11.70;;;;;;;;;;2059331;28;20206;-56
2021/04/09 02:18:08;;;;;;;15.73;11.53;;;;;;;;;;2055564;28;20622;-59
2021/04/09 02:19:08;;;;;;;12.17;10.97;;;;;;;;;;2054381;28;20186;-55
2021/04/09 02:20:10;;;;;;;16.53;11.70;;;;;;;;;;2056572;28;20210;-59
2021/04/09 02:21:10;;;;;;;13.13;10.73;;;;;;;;;;2059589;28;20573;-58
2021/04/09 02:22:10;;;;;;;14.77;11.67;;;;;;;;;;2054281;28;20210;-55
2021/04/09 02:23:11;;;;;;;14.30;11.83;;;;;;;;;;2053662;28;20186;-54
2021/04/09 02:24:12;;;;;;;11.53;10.43;;;;;;;;;;2056738;28;20399;-56
2021/04/09 02:25:14;;;;;;;14.13;10.93;;;;;;;;;;2058927;28;20178;-56
2021/04/09 02:26:14;;;;;;;15.33;10.73;;;;;;;;;;2057341;28;20218;-55
2021/04/09 02:27:15;;;;;;;17.03;11.67;;;;;;;;;;2058945;28;20195;-59
2021/04/09 02:28:15;;;;;;;11.87;10.67;;;;;;;;;;2056798;28;20175;-59
2021/04/09 02:29:15;;;;;;;12.20;10.67;;;;;;;;;;2052981;28;20225;-62
2021/04/09 02:30:17;;;;;;;13.73;10.87;;;;;;;;;;2058761;28;20546;-58
2021/04/09 02:31:17;;;;;;;12.10;10.73;;;;;;;;;;2053803;28;20167;-58
2021/04/09 02:32:17;;;;;;;12.40;11.10;;;;;;;;;;2047308;29;20210;-56
2021/04/09 02:33:18;;;;;;;14.30;11.27;;;;;;;;;;2051865;28;20234;-60
2021/04/09 02:34:18;;;;;;;13.20;10.70;;;;;;;;;;2053728;28;20175;-59
2021/04/09 02:35:19;;;;;;;13.30;10.60;;;;;;;;;;2057604;28;20162;-60
2021/04/09 02:36:26;;;;;;;13.10;11.27;;;;;;;;;;2058532;28;20254;-58
2021/04/09 02:37:27;;;;;;;13.90;11.63;;;;;;;;;;2055290;23;20483;-56
2021/04/09 02:38:28;;;;;;;14.67;11.07;;;;;;;;;;2047847;28;20262;-58
2021/04/09 02:39:30;;;;;;;14.97;10.97;;;;;;;;;;2048455;28;20521;-62
2021/04/09 02:40:34;;;;;;;15.10;11.23;;;;;;;;;;2045982;29;20182;-64
2021/04/09 02:41:36;;;;;;;15.33;11.67;;;;;;;;;;2048365;28;20210;-65
2021/04/09 02:42:37;;;;;;;12.13;10.87;;;;;;;;;;2049274;28;20171;-64
2021/04/09 02:43:37;;;;;;;16.57;12.13;;;;;;;;;;2047310;29;20521;-59
2021/04/09 02:44:38;;;;;;;12.30;11.03;;;;;;;;;;2048495;29;20218;-61
2021/04/09 02:45:38;;;;;;;12.50;10.90;;;;;;;;;;2047027;29;20675;-62
2021/04/09 02:46:49;;;;;;;15.60;11.13;;;;;;;;;;2048358;28;20695;-57
2021/04/09 02:47:50;;;;;;;14.40;10.83;;;;;;;;;;2046603;29;20195;-62
2021/04/09 02:48:52;;;;;;;13.40;10.67;;;;;;;;;;2041086;28;20168;-63
2021/04/09 02:49:59;;;;;;;12.93;10.77;;;;;;;;;;2045649;28;20180;-60
2021/04/09 02:51:01;;;;;;;15.20;11.20;;;;;;;;;;2055904;28;20166;-63
2021/04/09 02:52:03;;;;;;;15.10;12.00;;;;;;;;;;2050143;28;20218;-59
2021/04/09 02:53:06;;;;;;;13.40;10.93;;;;;;;;;;2057185;28;20632;-62
2021/04/09 02:54:09;;;;;;;13.97;11.43;;;;;;;;;;2055157;28;20395;-58
2021/04/09 02:55:13;;;;;;;12.57;11.03;;;;;;;;;;2045370;28;20187;-62
2021/04/09 02:56:14;;;;;;;15.03;11.00;;;;;;;;;;2052151;28;20278;-58
2021/04/09 02:57:14;;;;;;;12.63;11.30;;;;;;;;;;2053704;28;20190;-61
2021/04/09 02:58:15;;;;;;;12.10;10.73;;;;;;;;;;2051672;28;20190;-60
2021/04/09 02:59:16;;;;;;;12.70;10.93;;;;;;;;;;2057272;28;20178;-63
2021/04/09 03:00:17;;;;;;;15.17;10.90;;;;;;;;;;2056527;28;20186;-64
2021/04/09 03:01:20;;;;;;;13.47;10.53;;;;;;;;;;2054178;28;20174;-66
2021/04/09 03:02:21;;;;;;;12.13;10.87;;;;;;;;;;2052628;28;20225;-65
2021/04/09 03:03:22;;;;;;;11.57;10.33;;;;;;;;;;2053052;28;20670;-68
2021/04/09 03:04:23;;;;;;;14.43;10.70;;;;;;;;;;2052693;28;20251;-64
2021/04/09 03:05:23;;;;;;;11.73;10.47;;;;;;;;;;2047674;28;20186;-61
2021/04/09 03:06:24;;;;;;;13.13;10.93;;;;;;;;;;2048090;28;20198;-57
2021/04/09 03:07:24;;;;;;;13.17;11.00;;;;;;;;;;2052761;28;20194;-61
2021/04/09 03:08:25;;;;;;;16.60;11.53;;;;;;;;;;2046635;28;20258;-61
2021/04/09 03:09:25;;;;;;;12.93;10.20;;;;;;;;;;2053785;28;20182;-61
2021/04/09 03:10:26;;;;;;;18.10;12.37;;;;;;;;;;2046410;28;20203;-61
2021/04/09 03:11:26;;;;;;;13.63;10.63;;;;;;;;;;2053721;28;20862;-62
2021/04/09 03:12:28;;;;;;;15.33;11.30;;;;;;;;;;2048402;28;20230;-60
2021/04/09 03:13:28;;;;;;;16.17;12.27;;;;;;;;;;2053804;28;20170;-64
2021/04/09 03:14:29;;;;;;;14.93;12.20;;;;;;;;;;2051026;28;20616;-60
2021/04/09 03:15:36;;;;;;;15.70;11.13;;;;;;;;;;2049068;28;20253;-60
2021/04/09 03:16:39;;;;;;;12.70;11.37;;;;;;;;;;2054626;28;20580;-61
2021/04/09 03:17:43;;;;;;;13.20;11.10;;;;;;;;;;2049180;28;20675;-61
2021/04/09 03:18:43;;;;;;;16.27;10.63;;;;;;;;;;2056099;28;20258;-61
2021/04/09 03:19:44;;;;;;;12.57;10.40;;;;;;;;;;2049267;28;20183;-62
2021/04/09 03:20:44;;;;;;;11.97;10.77;;;;;;;;;;2048748;28;20167;-58
2021/04/09 03:21:44;;;;;;;12.50;11.10;;;;;;;;;;2055537;28;20597;-61
2021/04/09 03:22:45;;;;;;;11.47;10.27;;;;;;;;;;2047884;28;20168;-59
2021/04/09 03:23:45;;;;;;;13.23;11.40;;;;;;;;;;2045452;28;20175;-64
2021/04/09 03:24:45;;;;;;;12.97;10.97;;;;;;;;;;2047388;29;20679;-62
2021/04/09 03:25:45;;;;;;;11.57;10.27;;;;;;;;;;2055271;28;20679;-61
2021/04/09 03:26:46;;;;;;;12.50;9.77;;;;;;;;;;2049238;28;20198;-61
2021/04/09 03:27:47;;;;;;;16.23;11.70;;;;;;;;;;2047989;28;20203;-61
2021/04/09 03:28:47;;;;;;;11.93;10.37;;;;;;;;;;2053866;28;20181;-62
2021/04/09 03:29:47;;;;;;;13.00;9.90;;;;;;;;;;2047943;28;20912;-62
2021/04/09 03:30:51;;;;;;;12.90;11.20;;;;;;;;;;2055217;28;20678;-65
2021/04/09 03:31:51;;;;;;;12.87;10.67;;;;;;;;;;2049650;28;20209;-62
2021/04/09 03:32:52;;;;;;;13.77;11.43;;;;;;;;;;2042413;28;20183;-61
2021/04/09 03:33:52;;;;;;;14.73;10.53;;;;;;;;;;2048527;28;20586;-65
2021/04/09 03:34:52;;;;;;;12.40;10.53;;;;;;;;;;2041888;28;20182;-60
2021/04/09 03:35:52;;;;;;;16.63;11.13;;;;;;;;;;2056012;28;20225;-61
2021/04/09 03:36:52;;;;;;;17.30;10.90;;;;;;;;;;2049830;28;20632;-62
2021/04/09 03:37:53;;;;;;;14.03;11.47;;;;;;;;;;2046125;28;20272;-62
2021/04/09 03:38:53;;;;;;;13.33;9.93;;;;;;;;;;2056583;28;20641;-65
2021/04/09 03:39:53;;;;;;;11.50;10.40;;;;;;;;;;2049058;28;20247;-61
2021/04/09 03:40:54;;;;;;;13.13;9.60;;;;;;;;;;2055302;28;20174;-66
2021/04/09 03:41:54;;;;;;;14.73;10.80;;;;;;;;;;2045335;28;20218;-68
2021/04/09 03:42:54;;;;;;;13.83;10.57;;;;;;;;;;2054816;28;20166;-66
2021/04/09 03:43:54;;;;;;;16.73;10.50;;;;;;;;;;2055888;28;20185;-66
2021/04/09 03:44:55;;;;;;;11.57;10.17;;;;;;;;;;2051911;28;20221;-65
2021/04/09 03:45:55;;;;;;;14.87;10.87;;;;;;;;;;2048976;28;20691;-66
2021/04/09 03:46:55;;;;;;;14.13;10.00;;;;;;;;;;2054440;28;20209;-66
2021/04/09 03:47:56;;;;;;;13.07;10.53;;;;;;;;;;2053611;28;20735;-67
2021/04/09 03:48:56;;;;;;;10.93;9.67;;;;;;;;;;2054374;28;20211;-61
2021/04/09 03:49:56;;;;;;;11.93;10.73;;;;;;;;;;2044862;28;20706;-66
2021/04/09 03:50:56;;;;;;;11.40;10.30;;;;;;;;;;2049918;28;20175;-65
2021/04/09 03:51:57;;;;;;;12.17;10.50;;;;;;;;;;2049466;28;20245;-66
2021/04/09 03:52:57;;;;;;;11.50;9.77;;;;;;;;;;2053743;28;20174;-66
2021/04/09 03:53:57;;;;;;;14.63;10.50;;;;;;;;;;2050283;28;20171;-66
2021/04/09 03:54:58;;;;;;;14.73;9.97;;;;;;;;;;2045345;29;20285;-66
2021/04/09 03:55:58;;;;;;;11.50;10.30;;;;;;;;;;2044215;28;20250;-66
2021/04/09 03:56:58;;;;;;;11.67;9.07;;;;;;;;;;2056030;28;20657;-66
2021/04/09 03:57:59;;;;;;;12.00;9.87;;;;;;;;;;2050302;28;20203;-66
2021/04/09 03:58:59;;;;;;;12.43;10.47;;;;;;;;;;2056612;28;20362;-67
2021/04/09 03:59:59;;;;;;;11.37;10.17;;;;;;;;;;2045275;28;20214;-66
2021/04/09 04:00:59;;;;;;;11.30;10.00;;;;;;;;;;2045618;28;20683;-65
2021/04/09 04:02:01;;;;;;;12.10;10.33;;;;;;;;;;2055586;28;20173;-66
2021/04/09 04:03:01;;;;;;;11.43;10.33;;;;;;;;;;2051670;28;20175;-66
2021/04/09 04:04:01;;;;;;;14.97;10.27;;;;;;;;;;2055790;28;20182;-68
2021/04/09 04:05:02;;;;;;;11.50;10.40;;;;;;;;;;2046961;28;20270;-64
2021/04/09 04:06:03;;;;;;;12.73;10.87;;;;;;;;;;2052295;28;20258;-65
2021/04/09 04:07:03;;;;;;;11.97;10.87;;;;;;;;;;2054328;28;20162;-66
2021/04/09 04:08:03;;;;;;;13.57;10.07;;;;;;;;;;2045777;29;20179;-66
2021/04/09 04:09:04;;;;;;;11.27;10.17;;;;;;;;;;2052028;28;20188;-67
2021/04/09 04:10:04;;;;;;;14.60;10.60;;;;;;;;;;2056058;28;20198;-65
2021/04/09 04:11:05;;;;;;;18.27;10.70;;;;;;;;;;2055751;28;20265;-66
2021/04/09 04:12:05;;;;;;;12.80;10.17;;;;;;;;;;2048101;28;20182;-67
2021/04/09 04:13:06;;;;;;;11.03;9.93;;;;;;;;;;2055360;28;20167;-65
2021/04/09 04:14:06;;;;;;;12.80;10.50;;;;;;;;;;2052167;28;20215;-67
2021/04/09 04:15:07;;;;;;;13.93;10.37;;;;;;;;;;2055986;28;20174;-67
2021/04/09 04:16:07;;;;;;;11.53;10.30;;;;;;;;;;2049541;28;20625;-67
2021/04/09 04:17:07;;;;;;;12.43;10.27;;;;;;;;;;2047009;28;20179;-66
2021/04/09 04:18:08;;;;;;;13.90;10.57;;;;;;;;;;2053557;28;20175;-67
2021/04/09 04:19:08;;;;;;;14.37;11.53;;;;;;;;;;2055710;28;20185;-67
2021/04/09 04:20:09;;;;;;;13.30;10.30;;;;;;;;;;2051773;28;20603;-67
2021/04/09 04:21:09;;;;;;;17.47;11.47;;;;;;;;;;2055343;28;21751;-67
2021/04/09 04:22:09;;;;;;;11.80;10.70;;;;;;;;;;2051731;28;20690;-65
2021/04/09 04:23:10;;;;;;;14.43;11.90;;;;;;;;;;2054358;28;20189;-65
2021/04/09 04:24:10;;;;;;;15.27;11.07;;;;;;;;;;2046483;28;20186;-68
2021/04/09 04:25:10;;;;;;;13.00;11.40;;;;;;;;;;2054254;28;20632;-66
2021/04/09 04:26:11;;;;;;;14.20;11.47;;;;;;;;;;2049890;28;20254;-67
2021/04/09 04:27:11;;;;;;;12.87;11.27;;;;;;;;;;2051873;28;20179;-67
2021/04/09 04:28:11;;;;;;;14.97;10.90;;;;;;;;;;2051003;28;20174;-66
2021/04/09 04:29:11;;;;;;;16.93;11.77;;;;;;;;;;2051939;28;20176;-67
2021/04/09 04:30:12;;;;;;;12.80;11.03;;;;;;;;;;2049640;28;20591;-67
2021/04/09 04:31:13;;;;;;;14.73;10.90;;;;;;;;;;2050161;28;20816;-67
2021/04/09 04:32:13;;;;;;;13.13;10.60;;;;;;;;;;2052119;28;20175;-67
2021/04/09 04:33:13;;;;;;;12.37;10.90;;;;;;;;;;2052101;28;20170;-61
2021/04/09 04:34:14;;;;;;;14.57;11.07;;;;;;;;;;2054307;28;20159;-65
2021/04/09 04:35:14;;;;;;;13.40;11.20;;;;;;;;;;2053048;28;20190;-66
2021/04/09 04:36:14;;;;;;;12.87;10.77;;;;;;;;;;2045345;29;20175;-65
2021/04/09 04:37:15;;;;;;;12.63;10.60;;;;;;;;;;2048867;28;20202;-66
2021/04/09 04:38:16;;;;;;;13.90;10.97;;;;;;;;;;2052883;28;20265;-66
2021/04/09 04:39:16;;;;;;;11.27;10.17;;;;;;;;;;2054559;28;20313;-65
2021/04/09 04:40:16;;;;;;;12.77;11.07;;;;;;;;;;2054671;28;20234;-66
2021/04/09 04:41:17;;;;;;;12.30;10.70;;;;;;;;;;2047678;28;20188;-66
2021/04/09 04:42:17;;;;;;;14.43;10.67;;;;;;;;;;2049540;28;20182;-65
2021/04/09 04:43:18;;;;;;;11.60;10.50;;;;;;;;;;2053544;28;20173;-67
2021/04/09 04:44:18;;;;;;;12.83;10.97;;;;;;;;;;2054200;28;20219;-65
2021/04/09 04:45:18;;;;;;;12.80;10.43;;;;;;;;;;2049888;28;20181;-67
2021/04/09 04:46:19;;;;;;;11.73;10.40;;;;;;;;;;2052620;28;20298;-66
2021/04/09 04:47:19;;;;;;;13.43;10.60;;;;;;;;;;2045374;28;20197;-67
2021/04/09 04:48:19;;;;;;;14.10;10.90;;;;;;;;;;2048559;28;20171;-67
2021/04/09 04:49:19;;;;;;;12.20;11.00;;;;;;;;;;2053873;28;20178;-66
2021/04/09 04:50:20;;;;;;;14.60;10.17;;;;;;;;;;2049801;28;20172;-65
2021/04/09 04:51:20;;;;;;;12.87;10.63;;;;;;;;;;2054101;28;20166;-66
2021/04/09 04:52:20;;;;;;;13.53;11.00;;;;;;;;;;2053521;28;20183;-67
2021/04/09 04:53:21;;;;;;;11.50;9.43;;;;;;;;;;2053763;28;20225;-67
2021/04/09 04:54:21;;;;;;;18.60;11.00;;;;;;;;;;2053458;28;20247;-67
2021/04/09 04:55:21;;;;;;;11.93;10.37;;;;;;;;;;2052922;28;20206;-67
2021/04/09 04:56:21;;;;;;;14.80;10.33;;;;;;;;;;2053062;28;20167;-66
2021/04/09 04:57:22;;;;;;;14.20;11.23;;;;;;;;;;2054102;28;20249;-66
2021/04/09 04:58:22;;;;;;;13.43;10.43;;;;;;;;;;2048298;28;20219;-65
2021/04/09 04:59:22;;;;;;;11.33;10.13;;;;;;;;;;2046408;28;20204;-66
2021/04/09 05:00:23;;;;;;;14.03;11.13;;;;;;;;;;2045615;28;20206;-65
2021/04/09 05:01:23;;;;;;;13.93;10.23;;;;;;;;;;2054510;28;20182;-67
2021/04/09 05:02:23;;;;;;;11.97;10.67;;;;;;;;;;2052966;28;20198;-68
2021/04/09 05:03:23;;;;;;;12.60;10.57;;;;;;;;;;2053118;28;20186;-66
2021/04/09 05:04:24;;;;;;;13.70;10.80;;;;;;;;;;2051135;28;20170;-66
2021/04/09 05:05:24;;;;;;;19.80;11.20;;;;;;;;;;2047686;28;20560;-66
2021/04/09 05:06:24;;;;;;;12.57;10.53;;;;;;;;;;2048160;28;20179;-65
2021/04/09 05:07:25;;;;;;;14.90;11.00;;;;;;;;;;2054025;28;20194;-66
2021/04/09 05:08:25;;;;;;;13.33;10.93;;;;;;;;;;2055862;28;20655;-65
2021/04/09 05:09:25;;;;;;;11.07;9.90;;;;;;;;;;2052577;28;20174;-66
2021/04/09 05:10:26;;;;;;;12.47;11.03;;;;;;;;;;2051892;28;20174;-66
2021/04/09 05:11:26;;;;;;;14.53;10.90;;;;;;;;;;2054456;28;20175;-64
2021/04/09 05:12:26;;;;;;;12.17;10.77;;;;;;;;;;2053111;28;20650;-66
2021/04/09 05:13:26;;;;;;;13.03;9.90;;;;;;;;;;2054188;28;20178;-67
2021/04/09 05:14:27;;;;;;;12.40;10.67;;;;;;;;;;2057733;28;20197;-66
2021/04/09 05:15:27;;;;;;;11.37;10.03;;;;;;;;;;2055230;28;20162;-64
2021/04/09 05:16:27;;;;;;;13.97;10.37;;;;;;;;;;2057421;28;20318;-66
2021/04/09 05:17:28;;;;;;;12.40;9.77;;;;;;;;;;2056678;28;20722;-66
2021/04/09 05:18:28;;;;;;;15.23;10.20;;;;;;;;;;2057030;28;20297;-66
2021/04/09 05:19:29;;;;;;;10.87;9.60;;;;;;;;;;2063074;28;20252;-66
2021/04/09 05:20:29;;;;;;;12.40;10.60;;;;;;;;;;2052930;28;20171;-66
2021/04/09 05:21:29;;;;;;;18.10;11.70;;;;;;;;;;2049555;28;20171;-64
2021/04/09 05:22:30;;;;;;;16.00;9.73;;;;;;;;;;2053454;28;20174;-64
2021/04/09 05:23:30;;;;;;;11.60;10.43;;;;;;;;;;2053910;28;20174;-67
2021/04/09 05:24:30;;;;;;;14.20;10.23;;;;;;;;;;2056883;28;20524;-62
2021/04/09 05:25:31;;;;;;;13.57;9.90;;;;;;;;;;2048798;28;20549;-67
2021/04/09 05:26:31;;;;;;;12.77;10.20;;;;;;;;;;2059706;28;20579;-66
2021/04/09 05:27:31;;;;;;;11.63;10.53;;;;;;;;;;2053572;28;20194;-65
2021/04/09 05:28:31;;;;;;;13.70;10.10;;;;;;;;;;2053165;28;20539;-66
2021/04/09 05:29:33;;;;;;;13.60;10.23;;;;;;;;;;2053409;28;20265;-66
2021/04/09 05:30:34;;;;;;;13.27;10.20;;;;;;;;;;2053325;28;20166;-66
2021/04/09 05:31:34;;;;;;;13.17;9.40;;;;;;;;;;2050145;28;20194;-65
2021/04/09 05:32:34;;;;;;;12.90;10.53;;;;;;;;;;2051196;28;20176;-65
2021/04/09 05:33:34;;;;;;;13.57;9.80;;;;;;;;;;2054782;28;20162;-66
2021/04/09 05:34:35;;;;;;;14.13;10.30;;;;;;;;;;2049186;28;20185;-65
2021/04/09 05:35:35;;;;;;;13.37;10.43;;;;;;;;;;2055304;28;20202;-66
2021/04/09 05:36:35;;;;;;;15.67;10.50;;;;;;;;;;2051285;28;20175;-66
2021/04/09 05:37:36;;;;;;;12.80;10.40;;;;;;;;;;2047953;28;20198;-64
2021/04/09 05:38:36;;;;;;;14.43;10.33;;;;;;;;;;2042980;28;20179;-66
2021/04/09 05:39:37;;;;;;;12.20;9.50;;;;;;;;;;2049079;28;20179;-65
2021/04/09 05:40:37;;;;;;;16.03;9.97;;;;;;;;;;2049007;28;20191;-64
2021/04/09 05:41:37;;;;;;;12.07;10.73;;;;;;;;;;2050210;28;20183;-67
2021/04/09 05:42:37;;;;;;;11.87;10.30;;;;;;;;;;2049324;28;20202;-63
2021/04/09 05:43:38;;;;;;;12.17;9.97;;;;;;;;;;2049205;28;20179;-60
2021/04/09 05:44:38;;;;;;;11.10;10.00;;;;;;;;;;2047301;28;20555;-62
2021/04/09 05:45:38;;;;;;;10.83;9.73;;;;;;;;;;2046263;28;20176;-63
2021/04/09 05:46:39;;;;;;;14.33;10.23;;;;;;;;;;2053919;28;20211;-63
2021/04/09 05:47:39;;;;;;;11.37;10.13;;;;;;;;;;2048585;28;20653;-63
2021/04/09 05:48:39;;;;;;;13.30;10.63;;;;;;;;;;2048505;28;20226;-64
2021/04/09 05:49:39;;;;;;;15.70;10.50;;;;;;;;;;2045937;29;20179;-65
2021/04/09 05:50:40;;;;;;;14.93;10.90;;;;;;;;;;2046175;28;20240;-60
2021/04/09 05:51:40;;;;;;;12.50;9.63;;;;;;;;;;2054312;28;20672;-63
2021/04/09 05:52:40;;;;;;;14.20;10.60;;;;;;;;;;2047472;28;20532;-66
2021/04/09 05:53:41;;;;;;;12.97;10.63;;;;;;;;;;2040400;29;20183;-64
2021/04/09 05:54:42;;;;;;;12.77;10.10;;;;;;;;;;2050078;28;20634;-64
2021/04/09 05:55:42;;;;;;;13.27;10.03;;;;;;;;;;2044607;28;20211;-66
2021/04/09 05:56:42;;;;;;;12.53;10.17;;;;;;;;;;2049482;28;20612;-65
2021/04/09 05:57:43;;;;;;;13.20;9.20;;;;;;;;;;2049076;28;20199;-65